Alberton, MT

9:38 AM MDT on May 22, 2015 (GMT -0600)
Downtown Alberton | | Change Station
CLOSE
Current Station
Personal Weather Station
Location: Alberton, MT
Elevation: 3048 ft
Nearby Weather Stations

Elev 3048 ft 47.00 °N, 114.48 °W | Updated 14 minutes ago

Clear
Clear
57.2 °F
Feels Like 57.2 °F
N
5.0
Wind Variable Wind from SE
Gusts 5.0 mph

Today
High -- | Low -- °F
--% Chance of Precip.
Yesterday
High -- | Low -- °F
Precip. -- in
5:55 AM 9:15 PM
Waxing Crescent, 22% visible
Pressure 29.94 in
Visibility 10.0 miles
Clouds Clear
Dew Point 47 °F
Humidity 68%
Rainfall 0.00 in
Snow Depth Not available.
UV 3 out of 12
Pollen 7.60 out of 12
Air Quality Not available.
Flu Activity Local Activity
METAR KMSO 221453Z 00000KT 10SM CLR 12/07 A2995 RMK AO2 SLP138 T01220067 50002

More Conditions Fewer Conditions

Pressure 29.94 in
Visibility 10.0 miles
Clouds Clear
Dew Point 47 °F
Humidity 68%
Rainfall 0.00 in
Snow Depth Not available.
UV 3 out of 12
Pollen 7.60 out of 12
Air Quality Not available.
Flu Activity Local Activity
METAR KMSO 221453Z 00000KT 10SM CLR 12/07 A2995 RMK AO2 SLP138 T01220067 50002

More Conditions Fewer Conditions

10-Day Weather Forecast

Almanac

Astronomy

May. 22, 2015 Rise Set
Actual Time
Civil Twilight
Nautical Twilight
Astronomical Twilight
Moon
Length of Visible Light
Length of Day
Tomorrow will be .
, % of the Moon is Illuminated

Today's Extremes

State Highs State Lows

Community

WunderPhotos

Upload Photos

1,823,244 photos uploaded!

WunderBlogs® & News

Nearby

Air Quality

  Air Quality AQ Index Pollutant
Not available.

Snow Depth

Station Depth Elevation

Earthquake Activity

City Distance Mag. Time & Date
Minimum magnitude displayed is 2.5.

Coastal Water Temperatures

Place Temperature

Stations

Nearby Weather Stations

Station Location Temp. Windchill Dew Point Humidity Wind Precip. Elev Updated Type